»·PEaware :: UAL576 KLAS-KJAC

UAL576 :: KLAS-KJAC

FLIGHT INFORMATION

Flight Status: Arrived
Operator:
United Airlines
More flights by this operator :: More flights under this callsign
Pilot: Matt G. (13672)
Aircraft: BOEING 737-300
(B733)
More flights by this aircraft type
Origin: KLAS McCarran Intl
United States
Destination: KJAC Jackson Hole
United States
More flights between these airports :: More routes between these airports
Route: +TRALR7 MLF J9 FFU FBR DNW
File this flight plan on PilotEdge
Remarks: PBN / A1B3B4B5D3D4 DOF / 170619 REG / N372SB EET / KZLC0023 OPR / UAL RMK / TCAS
Altitude:
(Current/Filed)
33,000ft
Speed:
(Current/Filed)
434kts
Departed: 19-Jun-17 11:26 AM
Arrived: 19-Jun-17 12:52 PM
Distance/Time
Traveled:
495nm/1:26
Distance/Time
To Go:
Arrived

Flight Plot

Page will automatically refresh every two minutes.

Flight plan parsing failed; only flown route is shown


Map Options




Map Legend


Flown Route
Filed Route
Departure Airport
Arrival Airport
Navaid (VOR, NDB)
Fix

Horizontal Profiles

Position Reports

Time Latitude Longitude Heading Altitude Ground
Speed
19-Jun-17 11:03 36.082206 -115.140009 47 2148ft 0kts
19-Jun-17 11:04 36.082206 -115.140009 47 2148ft 0kts
19-Jun-17 11:05 36.082206 -115.140009 47 2148ft 0kts
19-Jun-17 11:06 36.082206 -115.140009 47 2148ft 0kts
19-Jun-17 11:07 36.082206 -115.140009 47 2148ft 0kts
19-Jun-17 11:08 36.082206 -115.140009 47 2148ft 0kts
19-Jun-17 11:09 36.082206 -115.140009 47 2148ft 0kts
19-Jun-17 11:10 36.082206 -115.140009 47 2148ft 0kts
19-Jun-17 11:11 36.082206 -115.140009 47 2148ft 0kts
19-Jun-17 11:12 36.082206 -115.140009 47 2148ft 0kts
19-Jun-17 11:13 36.082206 -115.140009 47 2148ft 0kts
19-Jun-17 11:14 36.082206 -115.140009 47 2148ft 0kts
19-Jun-17 11:15 36.082206 -115.140009 47 2148ft 0kts
19-Jun-17 11:16 36.082206 -115.140009 47 2148ft 0kts
19-Jun-17 11:17 36.082206 -115.140009 47 2148ft 0kts
19-Jun-17 11:18 36.081897 -115.140428 47 2148ft 0kts
19-Jun-17 11:19 36.081657 -115.140743 44 2148ft 0kts
19-Jun-17 11:20 36.081657 -115.140743 44 2148ft 0kts
19-Jun-17 11:21 36.081879 -115.140896 291 2148ft 0kts
19-Jun-17 11:22 36.081885 -115.140916 291 2148ft 0kts
19-Jun-17 11:23 36.081192 -115.142102 199 2148ft 10kts
19-Jun-17 11:24 36.077601 -115.142798 247 2148ft 13kts
19-Jun-17 11:25 36.077800 -115.147445 275 2148ft 15kts
19-Jun-17 11:26 36.078029 -115.155730 271 2148ft 28kts
19-Jun-17 11:27 36.077887 -115.161308 174 2148ft 3kts
19-Jun-17 11:28 36.077471 -115.161271 178 2148ft 0kts
19-Jun-17 11:29 36.076357 -115.156355 91 2148ft 73kts
19-Jun-17 11:30 36.074819 -115.107255 85 3047ft 166kts
19-Jun-17 11:31 36.073252 -115.042007 87 4108ft 218kts
19-Jun-17 11:32 36.075727 -114.957311 85 5478ft 276kts
19-Jun-17 11:33 36.091141 -114.862952 77 7933ft 285kts
19-Jun-17 11:34 36.107557 -114.765934 77 10208ft 299kts
19-Jun-17 11:35 36.126447 -114.652969 78 11045ft 357kts
19-Jun-17 11:36 36.176914 -114.555452 14 12997ft 370kts
19-Jun-17 11:37 36.275031 -114.522695 30 14892ft 378kts
19-Jun-17 11:38 36.367105 -114.457618 30 16727ft 388kts
19-Jun-17 11:39 36.461948 -114.390846 30 18436ft 398kts
19-Jun-17 11:40 36.559146 -114.322488 31 20057ft 408kts
19-Jun-17 11:41 36.658473 -114.252372 31 21647ft 416kts
19-Jun-17 11:42 36.759798 -114.180440 31 23044ft 426kts
19-Jun-17 11:43 36.863687 -114.106456 31 24330ft 435kts
19-Jun-17 11:44 36.969684 -114.030725 31 25516ft 444kts
19-Jun-17 11:45 37.078215 -113.952931 31 26472ft 457kts
19-Jun-17 11:46 37.189410 -113.873149 31 27471ft 465kts
19-Jun-17 11:47 37.300544 -113.792963 31 28826ft 462kts
19-Jun-17 11:48 37.411616 -113.712511 30 30029ft 461kts
19-Jun-17 11:49 37.522421 -113.631990 30 31078ft 460kts
19-Jun-17 11:50 37.632702 -113.551577 30 32009ft 459kts
19-Jun-17 11:51 37.742540 -113.471211 30 32822ft 458kts
19-Jun-17 11:52 37.852296 -113.390621 30 33310ft 457kts
19-Jun-17 11:53 37.960941 -113.310906 30 33279ft 453kts
19-Jun-17 11:54 38.069776 -113.230579 30 33285ft 454kts
19-Jun-17 11:55 38.178510 -113.150124 30 33271ft 453kts
19-Jun-17 11:56 38.287104 -113.069330 31 33267ft 454kts
19-Jun-17 11:57 38.397400 -112.992658 22 33269ft 454kts
19-Jun-17 11:58 38.513329 -112.930245 22 33267ft 453kts
19-Jun-17 11:59 38.628544 -112.867465 22 33267ft 452kts
19-Jun-17 12:00 38.743722 -112.804478 21 33263ft 450kts
19-Jun-17 12:01 38.858079 -112.741715 21 33255ft 450kts
19-Jun-17 12:02 38.973124 -112.678349 21 33250ft 453kts
19-Jun-17 12:03 39.088610 -112.614510 20 33250ft 453kts
19-Jun-17 12:04 39.204106 -112.550575 20 33249ft 453kts
19-Jun-17 12:05 39.319686 -112.486234 20 33248ft 453kts
19-Jun-17 12:06 39.434970 -112.421824 20 33249ft 453kts
19-Jun-17 12:07 39.550312 -112.357147 20 33249ft 453kts
19-Jun-17 12:08 39.665531 -112.292757 20 33249ft 454kts
19-Jun-17 12:09 39.780907 -112.227596 20 33253ft 453kts
19-Jun-17 12:10 39.895897 -112.162383 20 33265ft 453kts
19-Jun-17 12:11 40.010213 -112.096513 21 33272ft 453kts
19-Jun-17 12:12 40.124535 -112.029298 21 33235ft 453kts
19-Jun-17 12:13 40.238816 -111.961965 21 33278ft 453kts
19-Jun-17 12:14 40.336411 -111.859254 45 33280ft 461kts
19-Jun-17 12:15 40.424991 -111.738838 44 33275ft 459kts
19-Jun-17 12:16 40.513581 -111.619177 44 33273ft 459kts
19-Jun-17 12:17 40.601836 -111.499471 44 33259ft 459kts
19-Jun-17 12:18 40.690217 -111.379105 44 33292ft 459kts
19-Jun-17 12:19 40.778790 -111.258686 44 33399ft 460kts
19-Jun-17 12:20 40.867287 -111.137228 44 33425ft 460kts
19-Jun-17 12:21 40.955288 -111.015904 43 33424ft 457kts
19-Jun-17 12:22 41.042723 -110.894873 42 33421ft 455kts
19-Jun-17 12:23 41.129126 -110.774966 41 33411ft 456kts
19-Jun-17 12:24 41.216535 -110.653149 42 33431ft 456kts
19-Jun-17 12:25 41.303506 -110.531264 42 33431ft 456kts
19-Jun-17 12:26 41.393284 -110.415864 18 33411ft 440kts
19-Jun-17 12:27 41.510702 -110.389247 4 33440ft 433kts
19-Jun-17 12:28 41.628551 -110.358950 5 33425ft 433kts
19-Jun-17 12:29 41.746470 -110.328730 5 33432ft 435kts
19-Jun-17 12:30 41.864903 -110.297959 5 33431ft 434kts
19-Jun-17 12:31 41.982898 -110.267142 5 33431ft 435kts
19-Jun-17 12:32 42.101348 -110.236059 5 33150ft 434kts
19-Jun-17 12:33 42.219227 -110.205036 5 32745ft 435kts
19-Jun-17 12:34 42.338690 -110.173458 6 29350ft 442kts
19-Jun-17 12:35 42.458520 -110.141640 7 26492ft 443kts
19-Jun-17 12:36 42.575492 -110.112967 354 24329ft 412kts
19-Jun-17 12:37 42.673465 -110.145809 355 24071ft 341kts
19-Jun-17 12:38 42.777569 -110.163765 351 18016ft 447kts
19-Jun-17 12:39 42.891104 -110.181918 351 16416ft 380kts
19-Jun-17 12:40 42.996809 -110.199120 351 16096ft 398kts
19-Jun-17 12:41 43.111473 -110.217689 351 16300ft 428kts
19-Jun-17 12:42 43.221891 -110.235626 351 16153ft 378kts
19-Jun-17 12:43 43.326031 -110.252632 351 16108ft 378kts
19-Jun-17 12:44 43.429267 -110.269525 351 15171ft 377kts
19-Jun-17 12:45 43.530762 -110.286338 351 14066ft 362kts
19-Jun-17 12:46 43.631589 -110.303006 351 14105ft 368kts
19-Jun-17 12:47 43.732852 -110.319834 351 14079ft 359kts
19-Jun-17 12:48 43.813920 -110.378666 295 13098ft 343kts
19-Jun-17 12:49 43.816930 -110.493065 264 12371ft 288kts
19-Jun-17 12:50 43.791192 -110.597846 245 10124ft 288kts
19-Jun-17 12:51 43.740866 -110.667039 219 9600ft 228kts
19-Jun-17 12:52 43.687395 -110.698564 200 8423ft 181kts
19-Jun-17 12:53 43.642331 -110.720761 199 6937ft 159kts
19-Jun-17 12:54 43.605233 -110.738779 197 6458ft 85kts
19-Jun-17 12:55 43.599872 -110.739891 21 6458ft 12kts
19-Jun-17 12:56 43.602158 -110.738709 22 6458ft 8kts

Navigation Log

Ident Type
Flight plan parsing failed, navigation log unavailable